sensor_id;sensor_type;location;lat;lon;timestamp;P1;durP1;ratioP1;P2;durP2;ratioP2
21266;SDS011;10791;53.108;18.326;2023-04-24T00:04:17;21.17;;;15.30;;
21266;SDS011;10791;53.108;18.326;2023-04-24T00:09:21;21.77;;;16.73;;
21266;SDS011;10791;53.108;18.326;2023-04-24T00:14:24;23.20;;;17.10;;
21266;SDS011;10791;53.108;18.326;2023-04-24T00:19:28;22.50;;;17.33;;
21266;SDS011;10791;53.108;18.326;2023-04-24T00:24:31;24.50;;;18.10;;
21266;SDS011;10791;53.108;18.326;2023-04-24T00:29:34;23.83;;;18.37;;
21266;SDS011;10791;53.108;18.326;2023-04-24T00:34:38;21.67;;;16.70;;
21266;SDS011;10791;53.108;18.326;2023-04-24T00:39:41;25.43;;;17.13;;
21266;SDS011;10791;53.108;18.326;2023-04-24T00:44:45;26.40;;;18.83;;
21266;SDS011;10791;53.108;18.326;2023-04-24T00:49:49;22.87;;;16.93;;
21266;SDS011;10791;53.108;18.326;2023-04-24T00:54:52;23.27;;;17.70;;
21266;SDS011;10791;53.108;18.326;2023-04-24T00:59:55;26.10;;;17.13;;
21266;SDS011;10791;53.108;18.326;2023-04-24T01:05:00;23.33;;;16.87;;
21266;SDS011;10791;53.108;18.326;2023-04-24T01:10:04;22.00;;;16.27;;
21266;SDS011;10791;53.108;18.326;2023-04-24T01:15:08;23.57;;;16.50;;
21266;SDS011;10791;53.108;18.326;2023-04-24T01:20:12;22.50;;;16.07;;
21266;SDS011;10791;53.108;18.326;2023-04-24T01:25:16;23.87;;;16.97;;
21266;SDS011;10791;53.108;18.326;2023-04-24T01:30:20;21.20;;;16.33;;
21266;SDS011;10791;53.108;18.326;2023-04-24T01:35:24;22.87;;;16.40;;
21266;SDS011;10791;53.108;18.326;2023-04-24T01:40:27;20.93;;;15.70;;
21266;SDS011;10791;53.108;18.326;2023-04-24T01:45:31;24.23;;;17.10;;
21266;SDS011;10791;53.108;18.326;2023-04-24T01:50:34;26.47;;;18.30;;
21266;SDS011;10791;53.108;18.326;2023-04-24T01:55:38;21.67;;;16.63;;
21266;SDS011;10791;53.108;18.326;2023-04-24T02:00:41;25.07;;;18.97;;
21266;SDS011;10791;53.108;18.326;2023-04-24T02:05:44;25.33;;;17.60;;
21266;SDS011;10791;53.108;18.326;2023-04-24T02:10:48;24.20;;;18.00;;
21266;SDS011;10791;53.108;18.326;2023-04-24T02:15:51;24.33;;;17.77;;
21266;SDS011;10791;53.108;18.326;2023-04-24T02:20:55;21.83;;;16.17;;
21266;SDS011;10791;53.108;18.326;2023-04-24T02:25:58;21.50;;;16.90;;
21266;SDS011;10791;53.108;18.326;2023-04-24T02:31:01;22.17;;;17.47;;
21266;SDS011;10791;53.108;18.326;2023-04-24T02:36:04;24.97;;;17.73;;
21266;SDS011;10791;53.108;18.326;2023-04-24T02:41:08;23.10;;;17.73;;
21266;SDS011;10791;53.108;18.326;2023-04-24T02:46:11;23.87;;;17.17;;
21266;SDS011;10791;53.108;18.326;2023-04-24T02:51:14;23.27;;;17.90;;
21266;SDS011;10791;53.108;18.326;2023-04-24T02:56:18;29.83;;;21.27;;
21266;SDS011;10791;53.108;18.326;2023-04-24T03:01:21;28.47;;;18.93;;
21266;SDS011;10791;53.108;18.326;2023-04-24T03:06:24;28.63;;;19.53;;
21266;SDS011;10791;53.108;18.326;2023-04-24T03:11:29;30.20;;;21.50;;
21266;SDS011;10791;53.108;18.326;2023-04-24T03:16:32;25.33;;;20.33;;
21266;SDS011;10791;53.108;18.326;2023-04-24T03:21:36;28.80;;;21.53;;
21266;SDS011;10791;53.108;18.326;2023-04-24T03:26:43;27.63;;;20.70;;
21266;SDS011;10791;53.108;18.326;2023-04-24T03:31:46;30.67;;;22.57;;
21266;SDS011;10791;53.108;18.326;2023-04-24T03:36:49;27.97;;;19.57;;
21266;SDS011;10791;53.108;18.326;2023-04-24T03:41:53;25.83;;;19.93;;
21266;SDS011;10791;53.108;18.326;2023-04-24T03:46:57;28.33;;;20.70;;
21266;SDS011;10791;53.108;18.326;2023-04-24T03:52:01;26.23;;;19.47;;
21266;SDS011;10791;53.108;18.326;2023-04-24T03:57:04;25.87;;;20.67;;
21266;SDS011;10791;53.108;18.326;2023-04-24T04:02:08;31.53;;;21.93;;
21266;SDS011;10791;53.108;18.326;2023-04-24T04:07:12;24.43;;;19.10;;
21266;SDS011;10791;53.108;18.326;2023-04-24T04:12:15;24.00;;;18.47;;
21266;SDS011;10791;53.108;18.326;2023-04-24T04:17:19;24.67;;;18.97;;
21266;SDS011;10791;53.108;18.326;2023-04-24T04:22:22;27.93;;;19.70;;
21266;SDS011;10791;53.108;18.326;2023-04-24T04:27:25;39.33;;;24.03;;
21266;SDS011;10791;53.108;18.326;2023-04-24T04:32:29;25.87;;;20.23;;
21266;SDS011;10791;53.108;18.326;2023-04-24T04:37:33;26.63;;;20.43;;
21266;SDS011;10791;53.108;18.326;2023-04-24T04:42:36;28.83;;;21.20;;
21266;SDS011;10791;53.108;18.326;2023-04-24T04:47:42;29.13;;;20.93;;
21266;SDS011;10791;53.108;18.326;2023-04-24T04:52:46;34.23;;;22.00;;
21266;SDS011;10791;53.108;18.326;2023-04-24T04:57:50;27.37;;;20.83;;
21266;SDS011;10791;53.108;18.326;2023-04-24T05:02:54;27.87;;;19.77;;
21266;SDS011;10791;53.108;18.326;2023-04-24T05:08:10;29.20;;;21.47;;
21266;SDS011;10791;53.108;18.326;2023-04-24T05:13:28;26.60;;;20.70;;
21266;SDS011;10791;53.108;18.326;2023-04-24T05:18:42;25.27;;;20.13;;
21266;SDS011;10791;53.108;18.326;2023-04-24T05:23:45;29.73;;;21.60;;
21266;SDS011;10791;53.108;18.326;2023-04-24T05:28:48;28.73;;;20.87;;
21266;SDS011;10791;53.108;18.326;2023-04-24T05:33:52;25.83;;;19.97;;
21266;SDS011;10791;53.108;18.326;2023-04-24T05:38:55;32.53;;;24.20;;
21266;SDS011;10791;53.108;18.326;2023-04-24T05:43:59;26.50;;;20.83;;
21266;SDS011;10791;53.108;18.326;2023-04-24T05:49:02;29.03;;;22.03;;
21266;SDS011;10791;53.108;18.326;2023-04-24T05:54:06;27.73;;;20.73;;
21266;SDS011;10791;53.108;18.326;2023-04-24T05:59:09;24.23;;;20.20;;
21266;SDS011;10791;53.108;18.326;2023-04-24T06:04:13;25.77;;;19.53;;
21266;SDS011;10791;53.108;18.326;2023-04-24T06:09:16;26.00;;;18.67;;
21266;SDS011;10791;53.108;18.326;2023-04-24T06:14:20;22.30;;;16.33;;
21266;SDS011;10791;53.108;18.326;2023-04-24T06:19:23;22.43;;;15.73;;
21266;SDS011;10791;53.108;18.326;2023-04-24T06:24:27;20.03;;;14.80;;
21266;SDS011;10791;53.108;18.326;2023-04-24T06:29:31;17.10;;;13.63;;
21266;SDS011;10791;53.108;18.326;2023-04-24T06:34:35;19.30;;;13.97;;
21266;SDS011;10791;53.108;18.326;2023-04-24T06:39:39;19.40;;;13.93;;
21266;SDS011;10791;53.108;18.326;2023-04-24T06:44:42;18.43;;;13.60;;
21266;SDS011;10791;53.108;18.326;2023-04-24T06:49:46;21.03;;;14.07;;
21266;SDS011;10791;53.108;18.326;2023-04-24T06:54:50;22.90;;;13.93;;
21266;SDS011;10791;53.108;18.326;2023-04-24T06:59:53;16.33;;;12.63;;
21266;SDS011;10791;53.108;18.326;2023-04-24T07:04:56;20.07;;;13.17;;
21266;SDS011;10791;53.108;18.326;2023-04-24T07:09:59;16.40;;;11.93;;
21266;SDS011;10791;53.108;18.326;2023-04-24T07:15:03;20.30;;;11.63;;
21266;SDS011;10791;53.108;18.326;2023-04-24T07:20:07;16.87;;;12.03;;
21266;SDS011;10791;53.108;18.326;2023-04-24T07:25:12;14.27;;;10.95;;
21266;SDS011;10791;53.108;18.326;2023-04-24T07:30:16;15.40;;;10.50;;
21266;SDS011;10791;53.108;18.326;2023-04-24T07:35:19;14.10;;;10.60;;
21266;SDS011;10791;53.108;18.326;2023-04-24T07:40:23;11.88;;;8.35;;
21266;SDS011;10791;53.108;18.326;2023-04-24T07:45:26;11.52;;;8.45;;
21266;SDS011;10791;53.108;18.326;2023-04-24T07:50:30;10.82;;;9.05;;
21266;SDS011;10791;53.108;18.326;2023-04-24T07:55:34;13.23;;;8.60;;
21266;SDS011;10791;53.108;18.326;2023-04-24T08:00:37;12.70;;;8.55;;
21266;SDS011;10791;53.108;18.326;2023-04-24T08:05:40;12.60;;;8.97;;
21266;SDS011;10791;53.108;18.326;2023-04-24T08:10:45;10.93;;;8.30;;
21266;SDS011;10791;53.108;18.326;2023-04-24T08:15:48;9.82;;;8.15;;
21266;SDS011;10791;53.108;18.326;2023-04-24T08:20:51;11.82;;;8.65;;
21266;SDS011;10791;53.108;18.326;2023-04-24T08:25:55;9.05;;;7.53;;
21266;SDS011;10791;53.108;18.326;2023-04-24T08:31:04;12.75;;;8.88;;
21266;SDS011;10791;53.108;18.326;2023-04-24T08:36:08;12.00;;;8.25;;
21266;SDS011;10791;53.108;18.326;2023-04-24T08:41:11;10.13;;;7.85;;
21266;SDS011;10791;53.108;18.326;2023-04-24T08:46:19;11.55;;;8.73;;
21266;SDS011;10791;53.108;18.326;2023-04-24T08:51:23;12.27;;;8.88;;
21266;SDS011;10791;53.108;18.326;2023-04-24T08:56:29;10.25;;;8.05;;
21266;SDS011;10791;53.108;18.326;2023-04-24T09:01:35;11.75;;;7.45;;
21266;SDS011;10791;53.108;18.326;2023-04-24T09:06:42;10.38;;;7.50;;
21266;SDS011;10791;53.108;18.326;2023-04-24T09:11:46;9.63;;;7.82;;
21266;SDS011;10791;53.108;18.326;2023-04-24T09:16:51;8.85;;;7.45;;
21266;SDS011;10791;53.108;18.326;2023-04-24T09:21:55;11.68;;;7.35;;
21266;SDS011;10791;53.108;18.326;2023-04-24T09:26:59;9.63;;;6.70;;
21266;SDS011;10791;53.108;18.326;2023-04-24T09:32:18;8.25;;;6.43;;
21266;SDS011;10791;53.108;18.326;2023-04-24T09:37:28;7.88;;;5.95;;
21266;SDS011;10791;53.108;18.326;2023-04-24T09:42:32;9.20;;;6.78;;
21266;SDS011;10791;53.108;18.326;2023-04-24T09:47:39;9.98;;;5.72;;
21266;SDS011;10791;53.108;18.326;2023-04-24T09:52:46;9.43;;;5.20;;
21266;SDS011;10791;53.108;18.326;2023-04-24T09:57:59;8.23;;;5.55;;
21266;SDS011;10791;53.108;18.326;2023-04-24T10:03:04;7.85;;;5.53;;
21266;SDS011;10791;53.108;18.326;2023-04-24T10:08:09;10.10;;;6.78;;
21266;SDS011;10791;53.108;18.326;2023-04-24T10:13:14;7.05;;;4.70;;
21266;SDS011;10791;53.108;18.326;2023-04-24T10:18:18;6.88;;;4.88;;
21266;SDS011;10791;53.108;18.326;2023-04-24T10:23:24;8.15;;;5.10;;
21266;SDS011;10791;53.108;18.326;2023-04-24T10:28:28;8.18;;;5.40;;
21266;SDS011;10791;53.108;18.326;2023-04-24T10:33:34;7.88;;;5.50;;
21266;SDS011;10791;53.108;18.326;2023-04-24T10:38:39;7.35;;;5.65;;
21266;SDS011;10791;53.108;18.326;2023-04-24T10:43:44;8.93;;;6.05;;
21266;SDS011;10791;53.108;18.326;2023-04-24T10:48:52;8.80;;;6.57;;
21266;SDS011;10791;53.108;18.326;2023-04-24T10:53:57;9.90;;;5.70;;
21266;SDS011;10791;53.108;18.326;2023-04-24T10:59:00;9.20;;;6.20;;
21266;SDS011;10791;53.108;18.326;2023-04-24T11:04:04;8.93;;;6.63;;
21266;SDS011;10791;53.108;18.326;2023-04-24T11:09:09;10.57;;;7.07;;
21266;SDS011;10791;53.108;18.326;2023-04-24T11:14:15;13.25;;;6.80;;
21266;SDS011;10791;53.108;18.326;2023-04-24T11:19:20;8.25;;;6.60;;
21266;SDS011;10791;53.108;18.326;2023-04-24T11:24:38;8.25;;;6.68;;
21266;SDS011;10791;53.108;18.326;2023-04-24T11:29:49;11.82;;;7.30;;
21266;SDS011;10791;53.108;18.326;2023-04-24T11:35:12;9.15;;;7.38;;
21266;SDS011;10791;53.108;18.326;2023-04-24T11:40:18;14.25;;;7.40;;
21266;SDS011;10791;53.108;18.326;2023-04-24T11:45:26;10.60;;;7.80;;
21266;SDS011;10791;53.108;18.326;2023-04-24T11:50:31;12.02;;;8.00;;
21266;SDS011;10791;53.108;18.326;2023-04-24T11:55:34;11.80;;;7.53;;
21266;SDS011;10791;53.108;18.326;2023-04-24T12:00:37;10.50;;;7.82;;
21266;SDS011;10791;53.108;18.326;2023-04-24T12:05:41;10.00;;;8.02;;
21266;SDS011;10791;53.108;18.326;2023-04-24T12:10:44;9.38;;;8.40;;
21266;SDS011;10791;53.108;18.326;2023-04-24T12:15:54;12.07;;;8.15;;
21266;SDS011;10791;53.108;18.326;2023-04-24T12:26:24;13.65;;;9.85;;
21266;SDS011;10791;53.108;18.326;2023-04-24T12:31:28;13.70;;;8.88;;
21266;SDS011;10791;53.108;18.326;2023-04-24T12:36:32;10.80;;;9.38;;
21266;SDS011;10791;53.108;18.326;2023-04-24T12:41:38;12.02;;;9.88;;
21266;SDS011;10791;53.108;18.326;2023-04-24T12:47:00;14.55;;;9.63;;
21266;SDS011;10791;53.108;18.326;2023-04-24T12:52:04;14.85;;;9.93;;
21266;SDS011;10791;53.108;18.326;2023-04-24T12:57:07;12.13;;;9.10;;
21266;SDS011;10791;53.108;18.326;2023-04-24T13:02:10;11.73;;;8.23;;
21266;SDS011;10791;53.108;18.326;2023-04-24T13:07:14;10.90;;;7.40;;
21266;SDS011;10791;53.108;18.326;2023-04-24T13:12:17;9.15;;;7.07;;
21266;SDS011;10791;53.108;18.326;2023-04-24T13:17:22;9.07;;;6.28;;
21266;SDS011;10791;53.108;18.326;2023-04-24T13:22:25;7.75;;;6.35;;
21266;SDS011;10791;53.108;18.326;2023-04-24T13:27:29;8.93;;;6.05;;
21266;SDS011;10791;53.108;18.326;2023-04-24T13:32:32;8.68;;;6.78;;
21266;SDS011;10791;53.108;18.326;2023-04-24T13:37:37;9.35;;;6.82;;
21266;SDS011;10791;53.108;18.326;2023-04-24T13:42:41;11.38;;;6.60;;
21266;SDS011;10791;53.108;18.326;2023-04-24T13:47:45;8.30;;;6.15;;
21266;SDS011;10791;53.108;18.326;2023-04-24T13:52:48;9.68;;;6.90;;
21266;SDS011;10791;53.108;18.326;2023-04-24T13:57:51;9.85;;;6.38;;
21266;SDS011;10791;53.108;18.326;2023-04-24T14:02:57;7.47;;;6.68;;
21266;SDS011;10791;53.108;18.326;2023-04-24T14:08:00;8.38;;;7.32;;
21266;SDS011;10791;53.108;18.326;2023-04-24T14:13:04;12.95;;;8.07;;
21266;SDS011;10791;53.108;18.326;2023-04-24T14:18:08;9.77;;;7.70;;
21266;SDS011;10791;53.108;18.326;2023-04-24T14:23:11;14.15;;;7.53;;
21266;SDS011;10791;53.108;18.326;2023-04-24T14:28:14;10.27;;;8.38;;
21266;SDS011;10791;53.108;18.326;2023-04-24T14:33:23;8.20;;;7.15;;
21266;SDS011;10791;53.108;18.326;2023-04-24T14:38:27;10.95;;;7.97;;
21266;SDS011;10791;53.108;18.326;2023-04-24T14:43:30;7.70;;;6.35;;
21266;SDS011;10791;53.108;18.326;2023-04-24T14:48:33;10.85;;;6.30;;
21266;SDS011;10791;53.108;18.326;2023-04-24T14:53:37;5.03;;;4.15;;
21266;SDS011;10791;53.108;18.326;2023-04-24T14:58:41;5.45;;;4.22;;
21266;SDS011;10791;53.108;18.326;2023-04-24T15:03:44;6.03;;;4.07;;
21266;SDS011;10791;53.108;18.326;2023-04-24T15:08:56;7.15;;;4.28;;
21266;SDS011;10791;53.108;18.326;2023-04-24T15:13:59;7.78;;;4.38;;
21266;SDS011;10791;53.108;18.326;2023-04-24T15:19:02;4.95;;;3.95;;
21266;SDS011;10791;53.108;18.326;2023-04-24T15:24:05;5.55;;;3.88;;
21266;SDS011;10791;53.108;18.326;2023-04-24T15:29:09;6.53;;;3.83;;
21266;SDS011;10791;53.108;18.326;2023-04-24T15:34:12;5.57;;;4.10;;
21266;SDS011;10791;53.108;18.326;2023-04-24T15:39:15;7.25;;;4.07;;
21266;SDS011;10791;53.108;18.326;2023-04-24T15:44:19;5.22;;;3.90;;
21266;SDS011;10791;53.108;18.326;2023-04-24T15:49:23;6.28;;;3.55;;
21266;SDS011;10791;53.108;18.326;2023-04-24T15:54:28;5.75;;;3.67;;
21266;SDS011;10791;53.108;18.326;2023-04-24T15:59:31;7.93;;;4.20;;
21266;SDS011;10791;53.108;18.326;2023-04-24T16:04:35;6.10;;;3.70;;
21266;SDS011;10791;53.108;18.326;2023-04-24T16:09:39;4.32;;;3.58;;
21266;SDS011;10791;53.108;18.326;2023-04-24T16:14:43;7.45;;;4.22;;
21266;SDS011;10791;53.108;18.326;2023-04-24T16:19:47;10.48;;;4.38;;
21266;SDS011;10791;53.108;18.326;2023-04-24T16:24:50;4.97;;;4.30;;
21266;SDS011;10791;53.108;18.326;2023-04-24T16:29:54;5.32;;;3.70;;
21266;SDS011;10791;53.108;18.326;2023-04-24T16:34:58;6.40;;;4.03;;
21266;SDS011;10791;53.108;18.326;2023-04-24T16:40:01;4.43;;;3.60;;
21266;SDS011;10791;53.108;18.326;2023-04-24T16:45:08;7.68;;;3.75;;
21266;SDS011;10791;53.108;18.326;2023-04-24T16:50:11;4.40;;;3.42;;
21266;SDS011;10791;53.108;18.326;2023-04-24T16:55:15;5.50;;;3.50;;
21266;SDS011;10791;53.108;18.326;2023-04-24T17:00:19;5.93;;;4.20;;
21266;SDS011;10791;53.108;18.326;2023-04-24T17:05:24;7.63;;;3.30;;
21266;SDS011;10791;53.108;18.326;2023-04-24T17:10:28;4.43;;;2.08;;
21266;SDS011;10791;53.108;18.326;2023-04-24T17:15:31;3.97;;;2.78;;
21266;SDS011;10791;53.108;18.326;2023-04-24T17:20:41;6.53;;;3.65;;
21266;SDS011;10791;53.108;18.326;2023-04-24T17:25:45;4.55;;;3.00;;
21266;SDS011;10791;53.108;18.326;2023-04-24T17:30:53;11.87;;;4.33;;
21266;SDS011;10791;53.108;18.326;2023-04-24T17:36:01;7.13;;;4.00;;
21266;SDS011;10791;53.108;18.326;2023-04-24T17:41:12;5.50;;;3.33;;
21266;SDS011;10791;53.108;18.326;2023-04-24T17:46:19;6.93;;;3.93;;
21266;SDS011;10791;53.108;18.326;2023-04-24T17:51:24;5.80;;;4.33;;
21266;SDS011;10791;53.108;18.326;2023-04-24T17:56:29;7.53;;;3.30;;
21266;SDS011;10791;53.108;18.326;2023-04-24T18:01:33;4.60;;;2.80;;
21266;SDS011;10791;53.108;18.326;2023-04-24T18:06:38;7.93;;;3.10;;
21266;SDS011;10791;53.108;18.326;2023-04-24T18:11:44;7.27;;;3.10;;
21266;SDS011;10791;53.108;18.326;2023-04-24T18:16:50;4.63;;;3.30;;
21266;SDS011;10791;53.108;18.326;2023-04-24T18:22:00;4.33;;;3.07;;
21266;SDS011;10791;53.108;18.326;2023-04-24T18:27:04;4.77;;;3.20;;
21266;SDS011;10791;53.108;18.326;2023-04-24T18:32:10;8.90;;;3.30;;
21266;SDS011;10791;53.108;18.326;2023-04-24T18:37:15;6.23;;;3.83;;
21266;SDS011;10791;53.108;18.326;2023-04-24T18:42:20;9.10;;;3.40;;
21266;SDS011;10791;53.108;18.326;2023-04-24T18:47:31;4.37;;;3.53;;
21266;SDS011;10791;53.108;18.326;2023-04-24T18:52:36;8.63;;;4.50;;
21266;SDS011;10791;53.108;18.326;2023-04-24T18:57:41;14.13;;;8.70;;
21266;SDS011;10791;53.108;18.326;2023-04-24T19:02:47;10.47;;;6.13;;
21266;SDS011;10791;53.108;18.326;2023-04-24T19:07:52;12.13;;;8.17;;
21266;SDS011;10791;53.108;18.326;2023-04-24T19:13:00;8.33;;;5.37;;
21266;SDS011;10791;53.108;18.326;2023-04-24T19:18:05;9.10;;;6.43;;
21266;SDS011;10791;53.108;18.326;2023-04-24T19:23:09;10.20;;;6.67;;
21266;SDS011;10791;53.108;18.326;2023-04-24T19:28:14;16.17;;;10.33;;
21266;SDS011;10791;53.108;18.326;2023-04-24T19:33:22;18.37;;;11.47;;
21266;SDS011;10791;53.108;18.326;2023-04-24T19:38:30;15.63;;;10.37;;
21266;SDS011;10791;53.108;18.326;2023-04-24T19:43:39;17.53;;;9.53;;
21266;SDS011;10791;53.108;18.326;2023-04-24T19:48:46;14.50;;;9.07;;
21266;SDS011;10791;53.108;18.326;2023-04-24T19:53:52;13.13;;;8.93;;
21266;SDS011;10791;53.108;18.326;2023-04-24T19:58:58;11.90;;;9.00;;
21266;SDS011;10791;53.108;18.326;2023-04-24T20:04:06;12.97;;;10.03;;
21266;SDS011;10791;53.108;18.326;2023-04-24T20:09:13;19.50;;;11.20;;
21266;SDS011;10791;53.108;18.326;2023-04-24T20:14:18;15.90;;;10.57;;
21266;SDS011;10791;53.108;18.326;2023-04-24T20:19:24;16.33;;;10.90;;
21266;SDS011;10791;53.108;18.326;2023-04-24T20:24:29;14.77;;;10.07;;
21266;SDS011;10791;53.108;18.326;2023-04-24T20:29:32;12.97;;;8.73;;
21266;SDS011;10791;53.108;18.326;2023-04-24T20:34:37;14.23;;;8.77;;
21266;SDS011;10791;53.108;18.326;2023-04-24T20:39:42;14.33;;;10.63;;
21266;SDS011;10791;53.108;18.326;2023-04-24T20:44:47;17.00;;;11.50;;
21266;SDS011;10791;53.108;18.326;2023-04-24T20:49:50;16.83;;;12.77;;
21266;SDS011;10791;53.108;18.326;2023-04-24T20:54:53;18.93;;;12.03;;
21266;SDS011;10791;53.108;18.326;2023-04-24T20:59:57;14.87;;;12.03;;
21266;SDS011;10791;53.108;18.326;2023-04-24T21:05:00;15.33;;;11.43;;
21266;SDS011;10791;53.108;18.326;2023-04-24T21:10:03;11.20;;;9.30;;
21266;SDS011;10791;53.108;18.326;2023-04-24T21:15:07;11.70;;;9.83;;
21266;SDS011;10791;53.108;18.326;2023-04-24T21:20:11;12.23;;;10.17;;
21266;SDS011;10791;53.108;18.326;2023-04-24T21:25:15;9.57;;;7.93;;
21266;SDS011;10791;53.108;18.326;2023-04-24T21:30:18;10.17;;;7.27;;
21266;SDS011;10791;53.108;18.326;2023-04-24T21:35:23;8.30;;;7.13;;
21266;SDS011;10791;53.108;18.326;2023-04-24T21:40:26;9.30;;;6.90;;
21266;SDS011;10791;53.108;18.326;2023-04-24T21:45:30;10.00;;;7.80;;
21266;SDS011;10791;53.108;18.326;2023-04-24T21:50:33;8.83;;;7.10;;
21266;SDS011;10791;53.108;18.326;2023-04-24T21:55:36;10.20;;;7.63;;
21266;SDS011;10791;53.108;18.326;2023-04-24T22:00:39;9.37;;;7.37;;
21266;SDS011;10791;53.108;18.326;2023-04-24T22:05:43;11.07;;;8.07;;
21266;SDS011;10791;53.108;18.326;2023-04-24T22:10:46;8.50;;;6.97;;
21266;SDS011;10791;53.108;18.326;2023-04-24T22:15:49;8.87;;;6.90;;
21266;SDS011;10791;53.108;18.326;2023-04-24T22:20:53;10.73;;;6.67;;
21266;SDS011;10791;53.108;18.326;2023-04-24T22:25:56;9.10;;;6.77;;
21266;SDS011;10791;53.108;18.326;2023-04-24T22:30:59;8.80;;;7.00;;
21266;SDS011;10791;53.108;18.326;2023-04-24T22:36:03;10.17;;;6.83;;
21266;SDS011;10791;53.108;18.326;2023-04-24T22:41:07;11.37;;;6.70;;
21266;SDS011;10791;53.108;18.326;2023-04-24T22:46:10;9.90;;;6.30;;
21266;SDS011;10791;53.108;18.326;2023-04-24T22:51:13;9.23;;;5.73;;
21266;SDS011;10791;53.108;18.326;2023-04-24T22:56:17;7.50;;;5.60;;
21266;SDS011;10791;53.108;18.326;2023-04-24T23:01:21;7.70;;;4.93;;
21266;SDS011;10791;53.108;18.326;2023-04-24T23:06:24;4.60;;;3.93;;
21266;SDS011;10791;53.108;18.326;2023-04-24T23:11:28;5.70;;;4.47;;
21266;SDS011;10791;53.108;18.326;2023-04-24T23:16:31;5.73;;;4.33;;
21266;SDS011;10791;53.108;18.326;2023-04-24T23:21:39;6.70;;;4.40;;
21266;SDS011;10791;53.108;18.326;2023-04-24T23:26:43;6.37;;;4.37;;
21266;SDS011;10791;53.108;18.326;2023-04-24T23:31:46;8.70;;;5.00;;
21266;SDS011;10791;53.108;18.326;2023-04-24T23:36:51;6.80;;;4.47;;
21266;SDS011;10791;53.108;18.326;2023-04-24T23:41:55;5.90;;;4.10;;
21266;SDS011;10791;53.108;18.326;2023-04-24T23:46:58;5.73;;;3.67;;
21266;SDS011;10791;53.108;18.326;2023-04-24T23:52:01;5.77;;;3.13;;
21266;SDS011;10791;53.108;18.326;2023-04-24T23:57:05;4.50;;;3.47;;
